Time;durP1;ratioP1;P1;durP2;ratioP2;P2;SDS_P1;SDS_P2;PMS_P1;PMS_P2;Temp;Humidity;BMP_temperature;BMP_pressure;BME280_temperature;BME280_humidity;BME280_pressure;Samples;Min_cycle;Max_cycle;Signal;HPM_P1;HPM_P2
2021/07/05 00:01:54;;;;;;;2.90;2.50;;;19.80;99.90;;;;;;4888310;29;20399;-81
2021/07/05 00:04:20;;;;;;;3.67;2.67;;;19.80;99.90;;;;;;4894128;29;20432;-80
2021/07/05 00:06:45;;;;;;;2.20;2.10;;;19.70;99.90;;;;;;4859067;29;20799;-80
2021/07/05 00:09:11;;;;;;;2.63;2.42;;;19.70;99.90;;;;;;4917329;29;20481;-79
2021/07/05 00:11:37;;;;;;;3.13;2.93;;;19.60;99.90;;;;;;4874808;29;20419;-79
2021/07/05 00:14:02;;;;;;;2.83;2.63;;;19.60;99.90;;;;;;4877273;29;20415;-80
2021/07/05 00:16:28;;;;;;;2.13;2.03;;;19.50;99.90;;;;;;4849627;29;21448;-79
2021/07/05 00:18:54;;;;;;;2.70;2.50;;;19.40;99.90;;;;;;4867754;29;20411;-80
2021/07/05 00:21:20;;;;;;;2.50;2.30;;;19.30;99.90;;;;;;4867941;29;20932;-82
2021/07/05 00:23:45;;;;;;;2.83;2.57;;;19.30;99.90;;;;;;4888265;29;20433;-79
2021/07/05 00:26:11;;;;;;;2.95;2.67;;;19.20;99.90;;;;;;4889858;29;20467;-80
2021/07/05 00:28:37;;;;;;;2.90;2.70;;;19.20;99.90;;;;;;4894947;29;20979;-80
2021/07/05 00:31:03;;;;;;;2.60;2.40;;;19.10;99.90;;;;;;4876993;29;20941;-79
2021/07/05 00:33:29;;;;;;;2.90;2.70;;;19.00;99.90;;;;;;4879623;29;20763;-81
2021/07/05 00:35:55;;;;;;;2.87;2.67;;;19.00;99.90;;;;;;4877334;29;20419;-79
2021/07/05 00:38:20;;;;;;;2.90;2.60;;;18.90;99.90;;;;;;4880591;29;20439;-80
2021/07/05 00:40:46;;;;;;;2.30;2.20;;;18.80;99.90;;;;;;4884047;29;20401;-79
2021/07/05 00:43:12;;;;;;;3.07;2.77;;;18.80;99.90;;;;;;4886075;29;20408;-80
2021/07/05 00:45:37;;;;;;;2.95;2.38;;;18.80;99.90;;;;;;4878197;29;20409;-78
2021/07/05 00:48:04;;;;;;;2.70;2.50;;;18.80;99.90;;;;;;4878919;29;20953;-78
2021/07/05 00:50:29;;;;;;;3.05;2.58;;;18.80;99.90;;;;;;4908722;29;20422;-79
2021/07/05 00:52:57;;;;;;;3.33;3.03;;;18.80;99.90;;;;;;4879193;29;20409;-80
2021/07/05 00:55:23;;;;;;;3.35;2.78;;;18.70;99.90;;;;;;4878216;29;20417;-81
2021/07/05 00:57:48;;;;;;;2.85;2.65;;;18.80;99.90;;;;;;4859493;29;20494;-80
2021/07/05 01:00:16;;;;;;;3.37;3.07;;;18.80;99.90;;;;;;4868381;29;20399;-78
2021/07/05 01:02:42;;;;;;;3.28;3.08;;;18.70;99.90;;;;;;4872086;29;20411;-79
2021/07/05 01:05:08;;;;;;;3.20;2.90;;;18.60;99.90;;;;;;4898969;29;20409;-79
2021/07/05 01:07:34;;;;;;;2.72;2.53;;;18.50;99.90;;;;;;4897761;29;20404;-78
2021/07/05 01:09:59;;;;;;;3.30;3.10;;;18.40;99.90;;;;;;4900226;29;20411;-82
2021/07/05 01:12:25;;;;;;;3.03;2.75;;;18.40;99.90;;;;;;4878666;29;20409;-78
2021/07/05 01:14:51;;;;;;;3.20;2.90;;;18.30;99.90;;;;;;4906949;29;20495;-79
2021/07/05 01:17:16;;;;;;;2.83;2.63;;;18.30;99.90;;;;;;4861143;29;21014;-79
2021/07/05 01:19:46;;;;;;;3.22;2.92;;;18.20;99.90;;;;;;4886425;29;20413;-78
2021/07/05 01:22:12;;;;;;;2.88;2.67;;;18.20;99.90;;;;;;4893614;29;20553;-78
2021/07/05 01:24:38;;;;;;;3.90;2.80;;;18.20;99.90;;;;;;4898805;29;20430;-78
2021/07/05 01:27:04;;;;;;;3.13;2.90;;;18.20;99.90;;;;;;4901316;29;20401;-78
2021/07/05 01:29:30;;;;;;;3.85;3.55;;;18.10;99.90;;;;;;4871485;29;20412;-79
2021/07/05 01:31:56;;;;;;;4.35;3.20;;;18.10;99.90;;;;;;4888441;29;20429;-79
2021/07/05 01:34:22;;;;;;;3.70;3.40;;;18.10;99.90;;;;;;4880091;29;20424;-76
2021/07/05 01:36:48;;;;;;;3.47;3.17;;;18.00;99.90;;;;;;4877550;29;21170;-77
2021/07/05 01:39:14;;;;;;;4.37;2.90;;;18.00;99.90;;;;;;4861977;29;20406;-75
2021/07/05 01:41:40;;;;;;;3.17;2.90;;;17.90;99.90;;;;;;4874260;29;20410;-78
2021/07/05 01:44:05;;;;;;;2.85;2.65;;;17.80;99.90;;;;;;4877957;29;20496;-78
2021/07/05 01:46:31;;;;;;;3.20;2.90;;;17.90;99.90;;;;;;4862919;29;20484;-77
2021/07/05 01:48:57;;;;;;;3.13;2.93;;;17.80;99.90;;;;;;4894143;29;20484;-75
2021/07/05 01:51:22;;;;;;;4.57;3.63;;;17.90;99.90;;;;;;4875274;29;20422;-78
2021/07/05 01:53:48;;;;;;;3.47;3.20;;;17.70;99.90;;;;;;4917561;29;20414;-80
2021/07/05 01:56:13;;;;;;;3.63;3.33;;;17.70;99.90;;;;;;4901165;29;20638;-81
2021/07/05 01:58:39;;;;;;;3.55;3.25;;;17.60;99.90;;;;;;4899404;29;21119;-78
2021/07/05 02:01:05;;;;;;;3.43;2.83;;;17.50;99.90;;;;;;4915759;29;20421;-79
2021/07/05 02:03:31;;;;;;;4.22;3.22;;;17.40;99.90;;;;;;4901641;29;20567;-79
2021/07/05 02:05:56;;;;;;;4.30;3.83;;;17.40;99.90;;;;;;4919098;29;20517;-78
2021/07/05 02:08:22;;;;;;;3.83;3.50;;;17.40;99.90;;;;;;4882088;29;20389;-79
2021/07/05 02:10:48;;;;;;;3.28;2.97;;;17.40;99.90;;;;;;4876504;29;20418;-79
2021/07/05 02:13:25;;;;;;;2.90;2.70;;;17.30;99.90;;;;;;4895051;29;20396;-79
2021/07/05 02:15:52;;;;;;;3.60;3.22;;;17.30;99.90;;;;;;4910818;29;20405;-78
2021/07/05 02:18:18;;;;;;;3.70;3.23;;;17.30;99.90;;;;;;4896303;29;20890;-79
2021/07/05 02:20:44;;;;;;;3.30;3.00;;;17.20;99.90;;;;;;4894230;29;20416;-79
2021/07/05 02:23:10;;;;;;;3.85;3.10;;;17.20;99.90;;;;;;4894132;29;20417;-79
2021/07/05 02:25:37;;;;;;;3.22;3.03;;;17.20;99.90;;;;;;4889597;29;20404;-77
2021/07/05 02:28:07;;;;;;;4.05;3.65;;;17.20;99.90;;;;;;4892812;29;20417;-78
2021/07/05 02:30:33;;;;;;;4.20;3.27;;;17.10;99.90;;;;;;4897215;29;20413;-79
2021/07/05 02:32:59;;;;;;;5.20;3.90;;;17.10;99.90;;;;;;4874347;29;21166;-79
2021/07/05 02:35:26;;;;;;;3.42;3.13;;;17.00;99.90;;;;;;4875525;29;20449;-77
2021/07/05 02:37:52;;;;;;;3.67;3.38;;;17.00;99.90;;;;;;4868579;29;20399;-79
2021/07/05 02:40:19;;;;;;;3.05;2.85;;;17.00;99.90;;;;;;4883588;29;20811;-78
2021/07/05 02:42:45;;;;;;;3.30;3.00;;;16.90;99.90;;;;;;4869061;29;20421;-80
2021/07/05 02:45:16;;;;;;;3.17;2.97;;;16.90;99.90;;;;;;4879030;29;20984;-78
2021/07/05 02:47:42;;;;;;;3.65;3.35;;;17.00;99.90;;;;;;4877818;29;20663;-79
2021/07/05 02:50:09;;;;;;;3.40;3.10;;;17.00;99.90;;;;;;4874940;29;20432;-79
2021/07/05 02:52:34;;;;;;;3.70;3.40;;;16.90;99.90;;;;;;4895348;29;20406;-79
2021/07/05 02:55:00;;;;;;;3.50;3.20;;;16.90;99.90;;;;;;4908368;29;20402;-79
2021/07/05 02:57:29;;;;;;;3.75;3.35;;;16.90;99.90;;;;;;4876729;29;20417;-79
2021/07/05 03:00:01;;;;;;;4.05;3.65;;;16.90;99.90;;;;;;4881450;29;20399;-78
2021/07/05 03:02:30;;;;;;;3.80;3.50;;;16.90;99.90;;;;;;4897072;29;20425;-79
2021/07/05 03:04:57;;;;;;;3.40;3.10;;;16.90;99.90;;;;;;4910829;29;20899;-78
2021/07/05 03:07:23;;;;;;;3.92;3.63;;;16.80;99.90;;;;;;4862758;29;20397;-78
2021/07/05 03:09:48;;;;;;;3.72;3.33;;;16.80;99.90;;;;;;4879941;29;20752;-80
2021/07/05 03:12:14;;;;;;;3.83;3.50;;;16.80;99.90;;;;;;4918666;29;20903;-78
2021/07/05 03:14:40;;;;;;;3.90;3.40;;;16.80;99.90;;;;;;4916351;29;20422;-81
2021/07/05 03:17:05;;;;;;;3.30;3.00;;;16.80;99.90;;;;;;4887528;29;20438;-78
2021/07/05 03:19:31;;;;;;;4.03;3.63;;;16.80;99.90;;;;;;4908542;29;20414;-79
2021/07/05 03:21:57;;;;;;;3.63;3.33;;;16.90;99.90;;;;;;4879941;29;20406;-79
2021/07/05 03:24:22;;;;;;;3.55;3.25;;;16.90;99.90;;;;;;4895220;29;20480;-81
2021/07/05 03:26:48;;;;;;;3.37;3.07;;;16.90;99.90;;;;;;4867316;29;20413;-83
2021/07/05 03:29:13;;;;;;;3.50;3.20;;;16.90;99.90;;;;;;4900812;29;20494;-82
2021/07/05 03:31:39;;;;;;;3.93;3.63;;;16.90;99.90;;;;;;4867377;29;20917;-80
2021/07/05 03:34:05;;;;;;;4.28;3.65;;;16.90;99.90;;;;;;4912389;29;20486;-78
2021/07/05 03:36:31;;;;;;;4.43;3.40;;;16.90;99.90;;;;;;4898248;29;22096;-80
2021/07/05 03:38:57;;;;;;;3.72;3.42;;;16.90;99.90;;;;;;4875779;29;20753;-82
2021/07/05 03:41:22;;;;;;;3.80;3.33;;;16.90;99.90;;;;;;4922907;29;20403;-79
2021/07/05 03:43:48;;;;;;;7.38;3.42;;;17.00;99.90;;;;;;4864952;29;20916;-78
2021/07/05 03:46:14;;;;;;;4.10;3.53;;;17.00;99.90;;;;;;4896669;29;21023;-78
2021/07/05 03:48:39;;;;;;;4.20;3.60;;;17.10;99.90;;;;;;4879856;29;20404;-79
2021/07/05 03:51:05;;;;;;;3.40;3.10;;;17.20;99.90;;;;;;4863448;29;20417;-80
2021/07/05 03:53:31;;;;;;;3.13;2.92;;;17.20;99.90;;;;;;4878638;29;20504;-80
2021/07/05 03:55:56;;;;;;;3.33;3.03;;;17.30;99.90;;;;;;4864438;29;20417;-79
2021/07/05 03:58:22;;;;;;;3.45;3.15;;;17.40;99.90;;;;;;4909945;29;20421;-78
2021/07/05 04:00:47;;;;;;;3.30;3.00;;;17.50;99.90;;;;;;4910482;29;20917;-79
2021/07/05 04:03:15;;;;;;;3.83;3.20;;;17.50;99.90;;;;;;4909975;29;20421;-79
2021/07/05 04:05:40;;;;;;;4.30;4.00;;;17.70;99.90;;;;;;4864172;29;20394;-79
2021/07/05 04:08:06;;;;;;;3.58;3.28;;;17.80;99.90;;;;;;4868493;29;20481;-81
2021/07/05 04:10:32;;;;;;;4.20;3.80;;;17.80;99.90;;;;;;4889526;29;20422;-82
2021/07/05 04:12:58;;;;;;;4.78;4.00;;;17.90;99.90;;;;;;4889084;29;20428;-80
2021/07/05 04:15:24;;;;;;;4.05;3.65;;;18.00;99.90;;;;;;4922547;29;20963;-83
2021/07/05 04:17:50;;;;;;;4.63;4.23;;;18.10;99.90;;;;;;4898393;29;20422;-81
2021/07/05 04:20:20;;;;;;;5.30;4.80;;;18.20;99.90;;;;;;4899681;29;20818;-81
2021/07/05 04:22:46;;;;;;;3.85;3.50;;;18.30;99.90;;;;;;4890125;29;20429;-81
2021/07/05 04:25:14;;;;;;;3.50;3.20;;;18.30;99.90;;;;;;4894125;29;20417;-80
2021/07/05 04:27:40;;;;;;;4.80;4.03;;;18.40;99.90;;;;;;4885819;29;20428;-90
2021/07/05 04:30:06;;;;;;;4.45;4.05;;;18.50;99.90;;;;;;4900654;29;20425;-91
2021/07/05 04:32:32;;;;;;;3.60;3.30;;;18.60;99.90;;;;;;4899549;29;20410;-91
2021/07/05 04:34:58;;;;;;;9.63;3.63;;;18.70;99.90;;;;;;4915966;29;20427;-90
2021/07/05 04:37:23;;;;;;;7.05;6.38;;;18.70;99.90;;;;;;4919263;29;20476;-91
2021/07/05 04:39:49;;;;;;;6.83;5.60;;;18.80;99.90;;;;;;4899095;29;20397;-90
2021/07/05 04:42:15;;;;;;;3.95;3.65;;;19.10;99.90;;;;;;4890870;29;20399;-83
2021/07/05 04:44:41;;;;;;;3.80;3.50;;;19.00;99.90;;;;;;4919549;29;20446;-80
2021/07/05 04:47:06;;;;;;;4.05;3.65;;;19.20;99.90;;;;;;4893370;29;20398;-82
2021/07/05 04:49:32;;;;;;;4.10;3.80;;;19.30;99.90;;;;;;4908885;29;20408;-82
2021/07/05 04:51:58;;;;;;;3.72;3.42;;;19.30;99.90;;;;;;4893070;29;20435;-83
2021/07/05 04:54:23;;;;;;;4.30;3.90;;;19.60;99.90;;;;;;4894428;29;20905;-82
2021/07/05 04:56:49;;;;;;;3.90;3.60;;;19.50;99.90;;;;;;4906891;29;20413;-83
2021/07/05 04:59:15;;;;;;;3.92;3.60;;;19.70;99.90;;;;;;4898727;29;20672;-82
2021/07/05 05:01:40;;;;;;;3.87;3.40;;;19.90;99.90;;;;;;4943773;29;20401;-83
2021/07/05 05:04:06;;;;;;;3.67;3.38;;;20.00;99.90;;;;;;4906862;29;20413;-87
2021/07/05 05:06:32;;;;;;;4.13;3.60;;;20.20;99.90;;;;;;4897487;29;20417;-87
2021/07/05 05:08:57;;;;;;;3.90;3.60;;;20.30;99.90;;;;;;4894159;29;20381;-88
2021/07/05 05:11:23;;;;;;;3.70;3.33;;;20.40;99.90;;;;;;4909805;29;20411;-83
2021/07/05 05:13:49;;;;;;;3.80;3.50;;;20.40;99.90;;;;;;4893023;29;20976;-90
2021/07/05 05:16:16;;;;;;;3.38;3.08;;;20.60;99.90;;;;;;4909552;29;20399;-88
2021/07/05 05:18:42;;;;;;;3.67;3.38;;;20.60;99.90;;;;;;4896711;28;20419;-91
2021/07/05 05:21:08;;;;;;;3.80;3.50;;;20.70;99.90;;;;;;4919668;29;20390;-86
2021/07/05 05:23:34;;;;;;;3.77;3.47;;;20.80;99.90;;;;;;4899447;29;20527;-91
2021/07/05 05:25:59;;;;;;;3.50;3.20;;;20.80;99.90;;;;;;4889758;29;20415;-91
2021/07/05 05:28:25;;;;;;;3.75;3.45;;;20.90;99.90;;;;;;4920514;29;20385;-92
2021/07/05 05:30:51;;;;;;;3.50;3.20;;;20.90;99.90;;;;;;4904107;29;20408;-92
2021/07/05 05:33:17;;;;;;;3.72;3.42;;;21.10;99.90;;;;;;4936271;29;20401;-89
2021/07/05 05:35:42;;;;;;;3.40;3.20;;;21.00;99.90;;;;;;4933143;29;20427;-91
2021/07/05 05:38:08;;;;;;;3.78;3.47;;;21.30;99.90;;;;;;4918635;29;20407;-91
2021/07/05 05:40:33;;;;;;;3.50;3.30;;;21.20;99.90;;;;;;4900431;28;20471;-90
2021/07/05 05:42:59;;;;;;;3.70;3.40;;;21.20;99.90;;;;;;4894257;29;20457;-92
2021/07/05 05:45:25;;;;;;;3.83;3.45;;;21.40;99.90;;;;;;4938823;28;20403;-90
2021/07/05 05:47:51;;;;;;;3.40;3.10;;;21.30;99.90;;;;;;4908066;28;20411;-91
2021/07/05 05:50:17;;;;;;;3.22;3.03;;;21.30;99.90;;;;;;4907907;28;20458;-92
2021/07/05 05:52:43;;;;;;;3.83;3.40;;;21.40;99.90;;;;;;4907801;28;20392;-90
2021/07/05 05:55:10;;;;;;;3.85;3.45;;;21.40;99.90;;;;;;4925387;28;20447;-91
2021/07/05 05:57:38;;;;;;;3.80;3.42;;;21.40;99.90;;;;;;4919827;29;20427;-92
2021/07/05 06:00:11;;;;;;;3.55;2.78;;;21.40;99.90;;;;;;4901270;29;20397;-86
2021/07/05 06:02:37;;;;;;;3.27;3.07;;;21.50;99.90;;;;;;4903779;29;20413;-92
2021/07/05 06:05:03;;;;;;;3.80;3.47;;;21.80;99.90;;;;;;4902356;29;20397;-91
2021/07/05 06:07:30;;;;;;;5.30;3.43;;;21.70;99.90;;;;;;4903860;29;20420;-92
2021/07/05 06:09:56;;;;;;;9.00;3.50;;;21.90;99.90;;;;;;4911062;29;20489;-92
2021/07/05 06:12:23;;;;;;;4.00;3.60;;;21.90;99.90;;;;;;4911516;28;20384;-91
2021/07/05 06:14:49;;;;;;;3.40;3.20;;;21.90;99.90;;;;;;4905406;28;20411;-88
2021/07/05 06:17:18;;;;;;;4.20;3.80;;;21.90;99.90;;;;;;4892503;29;20484;-88
2021/07/05 06:19:44;;;;;;;3.78;3.47;;;22.00;99.90;;;;;;4921674;29;20426;-92
2021/07/05 06:22:14;;;;;;;3.60;3.30;;;21.70;99.90;;;;;;4936662;29;20468;-92
2021/07/05 06:24:41;;;;;;;3.10;2.90;;;21.80;99.90;;;;;;4888518;29;20425;-90
2021/07/05 06:27:07;;;;;;;4.18;3.10;;;21.80;99.90;;;;;;4920653;29;20405;-92
2021/07/05 06:29:35;;;;;;;2.90;2.70;;;21.90;99.90;;;;;;4889386;29;20405;-91
2021/07/05 06:32:01;;;;;;;3.60;3.30;;;22.00;99.90;;;;;;4905424;29;20413;-92
2021/07/05 06:34:28;;;;;;;3.67;3.38;;;22.20;99.90;;;;;;4920742;29;20408;-90
2021/07/05 06:36:54;;;;;;;2.92;2.72;;;22.10;99.90;;;;;;4921011;29;20405;-91
2021/07/05 06:39:21;;;;;;;3.27;2.97;;;22.20;99.90;;;;;;4908275;28;20399;-91
2021/07/05 06:41:48;;;;;;;3.53;3.22;;;22.30;99.90;;;;;;4918254;29;20412;-90
2021/07/05 06:44:18;;;;;;;2.60;2.40;;;22.40;99.90;;;;;;4944154;28;20432;-91
2021/07/05 06:46:47;;;;;;;3.10;2.90;;;22.30;99.90;;;;;;4905593;29;20421;-90
2021/07/05 06:49:17;;;;;;;4.13;2.90;;;22.50;99.90;;;;;;4922165;29;20413;-91
2021/07/05 06:51:46;;;;;;;3.05;2.75;;;22.30;99.90;;;;;;4904730;29;20670;-90
2021/07/05 06:54:13;;;;;;;2.72;2.53;;;22.60;99.90;;;;;;4920350;29;20397;-89
2021/07/05 06:56:44;;;;;;;2.80;2.58;;;22.50;99.90;;;;;;4920570;29;20468;-92
2021/07/05 06:59:11;;;;;;;2.83;2.63;;;22.80;99.90;;;;;;4890734;29;20409;-91
2021/07/05 07:01:39;;;;;;;2.75;2.35;;;22.70;99.90;;;;;;4920569;29;20397;-92
2021/07/05 07:04:10;;;;;;;2.50;2.30;;;22.70;99.90;;;;;;4907472;29;20437;-89
2021/07/05 07:06:37;;;;;;;3.22;2.65;;;22.70;99.90;;;;;;4884792;29;20404;-93
2021/07/05 07:09:05;;;;;;;2.20;2.10;;;22.70;99.90;;;;;;4926983;28;20408;-91
2021/07/05 07:11:32;;;;;;;2.38;2.17;;;22.80;99.90;;;;;;4948021;28;20508;-91
2021/07/05 07:14:00;;;;;;;2.50;2.30;;;22.80;99.90;;;;;;4909346;29;20416;-90
2021/07/05 07:16:31;;;;;;;2.28;2.13;;;23.00;99.90;;;;;;4935685;29;20385;-91
2021/07/05 07:19:16;;;;;;;2.58;2.38;;;23.20;99.90;;;;;;4934760;29;20400;-89
2021/07/05 07:21:51;;;;;;;2.85;2.50;;;23.30;99.90;;;;;;4909010;29;20437;-88
2021/07/05 07:24:24;;;;;;;2.10;2.00;;;23.40;99.90;;;;;;4898971;29;20409;-85
2021/07/05 07:26:55;;;;;;;2.53;2.33;;;23.40;99.90;;;;;;4879816;29;20409;-91
2021/07/05 07:29:26;;;;;;;2.60;2.40;;;23.50;99.90;;;;;;4920788;29;20418;-92
2021/07/05 07:32:01;;;;;;;1.88;1.77;;;23.50;99.90;;;;;;4871964;29;20409;-86
2021/07/05 07:34:31;;;;;;;2.50;2.30;;;23.30;99.90;;;;;;4903913;29;20402;-91
2021/07/05 07:37:04;;;;;;;2.58;2.25;;;23.50;99.90;;;;;;4889506;29;20409;-86
2021/07/05 07:39:48;;;;;;;2.55;2.35;;;23.30;99.90;;;;;;4907312;29;20397;-86
2021/07/05 07:42:21;;;;;;;2.58;2.38;;;23.30;99.90;;;;;;4907518;29;20404;-88
2021/07/05 07:44:52;;;;;;;2.40;2.20;;;23.50;99.90;;;;;;4875088;29;20421;-83
2021/07/05 07:47:29;;;;;;;2.30;1.90;;;23.80;99.90;;;;;;4903070;29;20393;-85
2021/07/05 07:50:07;;;;;;;2.00;1.90;;;23.90;99.90;;;;;;4909965;29;20393;-81
2021/07/05 07:59:14;;;;;;;2.17;1.88;;;24.40;99.90;;;;;;4932478;23;20492;-77
2021/07/05 08:01:40;;;;;;;2.20;2.00;;;24.60;99.90;;;;;;4893992;29;20422;-77
2021/07/05 08:04:05;;;;;;;2.15;1.95;;;24.80;99.90;;;;;;4908791;29;20515;-78
2021/07/05 08:06:31;;;;;;;2.27;2.07;;;24.80;99.90;;;;;;4877741;29;20410;-76
2021/07/05 08:08:57;;;;;;;4.90;1.80;;;24.80;99.90;;;;;;4908064;29;20903;-77
2021/07/05 08:11:23;;;;;;;4.15;2.08;;;25.10;99.90;;;;;;4892305;29;20418;-76
2021/07/05 08:13:48;;;;;;;1.83;1.73;;;25.20;99.90;;;;;;4890761;29;20437;-77
2021/07/05 08:16:15;;;;;;;2.10;1.90;;;25.30;99.90;;;;;;4873759;29;20408;-78
2021/07/05 08:18:40;;;;;;;2.00;1.90;;;25.40;99.90;;;;;;4875892;29;20411;-77
2021/07/05 08:21:06;;;;;;;2.27;2.07;;;25.00;99.90;;;;;;4875991;29;20416;-77
2021/07/05 08:23:32;;;;;;;2.00;1.90;;;25.00;99.90;;;;;;4878423;29;20462;-77
2021/07/05 08:25:58;;;;;;;1.40;1.35;;;25.00;99.90;;;;;;4876418;29;20481;-77
2021/07/05 08:28:24;;;;;;;1.70;1.60;;;25.10;99.90;;;;;;4891653;29;20501;-76
2021/07/05 08:30:52;;;;;;;4.40;1.85;;;25.30;99.90;;;;;;4875610;29;20563;-77
2021/07/05 08:33:18;;;;;;;1.92;1.77;;;25.30;99.90;;;;;;4893670;29;21101;-77
2021/07/05 08:35:44;;;;;;;1.80;1.70;;;25.10;99.90;;;;;;4877670;29;20510;-76
2021/07/05 08:38:09;;;;;;;1.70;1.60;;;25.30;99.90;;;;;;4877660;29;20441;-77
2021/07/05 08:40:35;;;;;;;1.77;1.67;;;25.30;99.90;;;;;;4892839;29;20403;-77
2021/07/05 08:43:02;;;;;;;1.70;1.60;;;25.40;99.90;;;;;;4907827;29;20423;-76
2021/07/05 08:45:27;;;;;;;1.83;1.52;;;25.50;99.90;;;;;;4869564;29;20419;-77
2021/07/05 08:47:54;;;;;;;1.80;1.70;;;25.40;99.90;;;;;;4888406;29;20435;-79
2021/07/05 08:50:21;;;;;;;2.80;1.70;;;25.50;99.90;;;;;;4875862;29;20417;-77
2021/07/05 08:52:47;;;;;;;1.50;1.40;;;25.40;99.90;;;;;;4884433;29;20400;-77
2021/07/05 08:55:14;;;;;;;1.70;1.60;;;25.50;99.90;;;;;;4860195;29;20404;-77
2021/07/05 08:57:42;;;;;;;1.77;1.67;;;25.60;99.90;;;;;;4878898;29;20427;-77
2021/07/05 09:00:17;;;;;;;1.58;1.48;;;25.40;99.90;;;;;;4877777;29;20422;-78
2021/07/05 09:02:43;;;;;;;1.10;1.10;;;25.40;99.90;;;;;;4878480;29;20426;-77
2021/07/05 09:05:09;;;;;;;1.80;1.60;;;25.20;99.90;;;;;;4874831;29;20457;-77
2021/07/05 09:07:54;;;;;;;1.80;1.70;;;25.20;99.90;;;;;;4864576;29;20444;-77
2021/07/05 09:10:20;;;;;;;1.45;1.35;;;25.10;99.90;;;;;;4876252;29;20493;-78
2021/07/05 09:12:46;;;;;;;2.57;1.63;;;24.90;99.90;;;;;;4897546;29;20483;-78
2021/07/05 09:15:13;;;;;;;1.67;1.58;;;24.80;99.90;;;;;;4895593;29;20423;-77
2021/07/05 09:17:41;;;;;;;1.98;1.77;;;24.80;99.90;;;;;;4895159;29;20415;-79
2021/07/05 09:20:13;;;;;;;2.75;2.20;;;24.70;99.90;;;;;;4878664;29;20406;-77
2021/07/05 09:23:12;;;;;;;1.85;1.75;;;24.70;99.90;;;;;;4895109;29;21263;-77
2021/07/05 09:25:40;;;;;;;1.55;1.45;;;24.50;99.90;;;;;;4903665;29;20418;-77
2021/07/05 09:28:06;;;;;;;1.73;1.60;;;24.40;99.90;;;;;;4893443;29;21374;-77
2021/07/05 09:30:40;;;;;;;2.60;1.73;;;24.40;99.90;;;;;;4878434;29;20499;-76
2021/07/05 09:33:18;;;;;;;1.65;1.55;;;24.20;99.90;;;;;;4863864;29;20528;-76
2021/07/05 09:35:44;;;;;;;1.98;1.77;;;24.10;99.90;;;;;;4893267;29;20423;-79
2021/07/05 09:38:10;;;;;;;1.60;1.50;;;23.90;99.90;;;;;;4875317;29;20442;-79
2021/07/05 09:40:35;;;;;;;1.90;1.80;;;23.90;99.90;;;;;;4874599;29;20427;-79
2021/07/05 09:43:01;;;;;;;1.67;1.57;;;23.80;99.90;;;;;;4876022;29;21014;-79
2021/07/05 09:45:32;;;;;;;1.80;1.70;;;23.70;99.90;;;;;;4890180;29;20394;-79
2021/07/05 09:48:25;;;;;;;1.75;1.65;;;23.50;99.90;;;;;;4890880;29;20478;-81
2021/07/05 09:50:58;;;;;;;1.85;1.70;;;23.40;99.90;;;;;;4875443;29;20411;-78
2021/07/05 09:53:35;;;;;;;2.17;1.98;;;23.20;99.90;;;;;;4890419;29;20419;-78
2021/07/05 09:56:19;;;;;;;1.80;1.70;;;23.20;99.90;;;;;;4878139;29;20411;-78
2021/07/05 09:58:46;;;;;;;1.88;1.77;;;23.30;99.90;;;;;;4892183;29;20411;-79
2021/07/05 10:01:12;;;;;;;1.65;1.55;;;23.20;99.90;;;;;;4906924;29;20407;-80
2021/07/05 10:03:40;;;;;;;1.80;1.70;;;23.20;99.90;;;;;;4891804;29;20510;-79
2021/07/05 10:06:19;;;;;;;1.80;1.70;;;23.30;99.90;;;;;;4906694;29;20486;-79
2021/07/05 10:08:45;;;;;;;2.05;1.90;;;23.20;99.90;;;;;;4885501;29;20415;-87
2021/07/05 10:11:11;;;;;;;2.47;2.17;;;23.20;99.90;;;;;;4896745;29;20413;-79
2021/07/05 10:13:37;;;;;;;2.28;1.80;;;23.20;99.90;;;;;;4891380;29;20407;-78
2021/07/05 10:16:06;;;;;;;1.90;1.80;;;23.30;99.90;;;;;;4889930;29;20410;-80
2021/07/05 10:18:32;;;;;;;1.90;1.80;;;23.30;99.90;;;;;;4889802;29;20830;-79
2021/07/05 10:20:58;;;;;;;1.70;1.60;;;23.30;99.90;;;;;;4846870;29;20453;-79
2021/07/05 10:23:24;;;;;;;2.00;1.70;;;23.40;99.90;;;;;;4830104;29;20902;-80
2021/07/05 10:25:49;;;;;;;1.92;1.83;;;23.40;99.90;;;;;;4835956;29;20413;-79
2021/07/05 10:28:15;;;;;;;2.00;1.80;;;23.50;99.90;;;;;;4890794;29;20415;-78
2021/07/05 10:30:42;;;;;;;1.83;1.70;;;23.60;99.90;;;;;;4874804;29;20419;-81
2021/07/05 10:33:08;;;;;;;2.00;1.90;;;23.60;99.90;;;;;;4875849;29;20410;-79
2021/07/05 10:35:36;;;;;;;1.97;1.87;;;23.50;99.90;;;;;;4875157;29;22330;-77
2021/07/05 10:38:31;;;;;;;1.60;1.50;;;23.30;99.90;;;;;;4877857;29;20505;-78
2021/07/05 10:41:01;;;;;;;1.80;1.60;;;23.20;99.90;;;;;;4891467;29;20417;-76
2021/07/05 10:44:21;;;;;;;1.50;1.40;;;23.30;99.90;;;;;;4916313;29;20414;-76
2021/07/05 10:46:52;;;;;;;1.50;1.40;;;23.20;99.90;;;;;;4891416;29;20413;-76
2021/07/05 10:51:57;;;;;;;1.10;1.10;;;23.20;99.90;;;;;;4893934;29;20413;-76
2021/07/05 10:54:45;;;;;;;3.10;1.60;;;23.30;99.90;;;;;;4878046;29;20422;-77
2021/07/05 10:57:11;;;;;;;1.70;1.60;;;23.30;99.90;;;;;;4893165;29;20410;-76
2021/07/05 10:59:40;;;;;;;2.20;1.70;;;23.20;99.90;;;;;;4877448;29;20415;-78
2021/07/05 11:02:57;;;;;;;1.70;1.40;;;23.10;99.90;;;;;;4881485;29;21019;-76
2021/07/05 11:05:32;;;;;;;1.50;1.40;;;23.00;99.90;;;;;;4878878;29;20939;-76
2021/07/05 11:08:20;;;;;;;1.35;1.35;;;23.10;99.90;;;;;;4895405;29;20423;-77
2021/07/05 11:10:45;;;;;;;1.73;1.60;;;23.20;99.90;;;;;;4905606;29;20816;-76
2021/07/05 11:13:11;;;;;;;1.30;1.30;;;23.20;99.90;;;;;;4895682;29;20528;-76
2021/07/05 11:15:49;;;;;;;1.80;1.70;;;23.20;99.90;;;;;;4879694;29;20399;-78
2021/07/05 11:18:36;;;;;;;1.60;1.50;;;23.40;99.90;;;;;;4880785;29;20394;-78
2021/07/05 11:21:09;;;;;;;1.40;1.30;;;23.50;99.90;;;;;;4880294;29;20399;-77
2021/07/05 11:23:53;;;;;;;1.70;1.60;;;23.70;99.90;;;;;;4894214;29;20971;-77
2021/07/05 11:26:19;;;;;;;1.50;1.40;;;23.80;99.90;;;;;;4901259;29;20413;-76
2021/07/05 11:28:45;;;;;;;1.60;1.50;;;24.00;99.90;;;;;;4894504;29;20403;-76
2021/07/05 11:31:22;;;;;;;1.47;1.37;;;24.10;99.90;;;;;;4892722;29;20479;-76
2021/07/05 11:33:48;;;;;;;1.40;1.30;;;24.20;99.90;;;;;;4893073;29;20800;-77
2021/07/05 11:36:21;;;;;;;1.25;1.25;;;24.10;99.90;;;;;;4888868;29;20401;-78
2021/07/05 11:39:00;;;;;;;1.50;1.40;;;24.10;99.90;;;;;;4894441;29;20407;-77
2021/07/05 11:41:27;;;;;;;1.70;1.60;;;24.20;99.90;;;;;;4893234;29;20407;-77
2021/07/05 11:44:10;;;;;;;1.42;1.33;;;24.20;99.90;;;;;;4895766;29;20427;-76
2021/07/05 11:46:35;;;;;;;1.40;1.30;;;24.00;99.90;;;;;;4877587;29;20468;-76
2021/07/05 11:49:08;;;;;;;1.90;1.40;;;24.00;99.90;;;;;;4895561;29;20419;-78
2021/07/05 11:51:39;;;;;;;1.10;1.10;;;24.00;99.90;;;;;;4895574;29;20430;-77
2021/07/05 11:54:14;;;;;;;1.30;1.20;;;24.20;99.90;;;;;;4893351;29;20923;-78
2021/07/05 11:56:54;;;;;;;1.60;1.50;;;24.30;99.90;;;;;;4877939;29;20411;-78
2021/07/05 11:59:22;;;;;;;1.53;1.43;;;24.70;99.90;;;;;;4891958;29;20430;-77
2021/07/05 12:01:55;;;;;;;1.20;1.20;;;25.30;99.90;;;;;;4876754;29;20877;-78
2021/07/05 12:04:25;;;;;;;1.45;1.35;;;25.80;99.90;;;;;;4860472;29;20415;-77
2021/07/05 12:06:51;;;;;;;1.58;1.40;;;26.00;99.90;;;;;;4876583;29;20835;-77
2021/07/05 12:09:18;;;;;;;1.30;1.30;;;26.10;99.90;;;;;;4868115;29;20440;-78
2021/07/05 12:11:47;;;;;;;1.37;1.27;;;26.50;99.90;;;;;;4891411;29;20439;-78
2021/07/05 12:14:16;;;;;;;1.73;1.48;;;27.10;99.90;;;;;;4892172;29;20411;-78
2021/07/05 12:16:45;;;;;;;1.83;1.52;;;27.40;99.90;;;;;;4891123;29;20984;-78
2021/07/05 12:19:13;;;;;;;1.30;1.30;;;27.80;99.90;;;;;;4892261;29;20445;-78
2021/07/05 12:21:44;;;;;;;1.42;1.33;;;28.30;99.90;;;;;;4892346;29;20415;-79
2021/07/05 12:24:21;;;;;;;1.20;1.20;;;28.60;99.90;;;;;;4873700;29;20425;-78
2021/07/05 12:26:49;;;;;;;1.60;1.50;;;28.60;99.90;;;;;;4842840;29;20500;-78
2021/07/05 12:29:20;;;;;;;1.08;1.08;;;28.90;99.90;;;;;;4858410;29;20421;-78
2021/07/05 12:32:01;;;;;;;1.20;1.20;;;29.30;99.90;;;;;;4843748;29;20445;-79
2021/07/05 12:34:49;;;;;;;1.40;1.30;;;29.40;99.90;;;;;;4853009;29;20412;-79
2021/07/05 12:37:32;;;;;;;1.67;1.58;;;29.70;99.90;;;;;;4845984;29;20408;-79
2021/07/05 12:40:08;;;;;;;1.42;1.40;;;29.40;99.90;;;;;;4894213;29;20935;-78
2021/07/05 12:42:38;;;;;;;1.60;1.50;;;29.60;99.90;;;;;;4891926;29;20494;-78
2021/07/05 12:45:11;;;;;;;1.73;1.40;;;29.30;99.90;;;;;;4890608;29;20415;-76
2021/07/05 12:47:44;;;;;;;1.35;1.30;;;29.50;99.90;;;;;;4891355;29;20447;-77
2021/07/05 12:50:09;;;;;;;0.98;0.98;;;29.10;99.90;;;;;;4876452;29;20399;-77
2021/07/05 12:52:35;;;;;;;1.25;1.25;;;28.90;99.90;;;;;;4876721;29;20434;-77
2021/07/05 12:55:27;;;;;;;1.07;1.07;;;28.90;99.90;;;;;;4875500;29;20411;-76
2021/07/05 12:57:53;;;;;;;1.08;1.08;;;28.60;99.90;;;;;;4874345;29;20764;-76
2021/07/05 13:00:21;;;;;;;1.30;1.20;;;28.40;99.90;;;;;;4890600;29;20414;-78
2021/07/05 13:02:47;;;;;;;0.90;0.90;;;28.40;99.90;;;;;;4875879;29;20478;-76
2021/07/05 13:05:17;;;;;;;1.02;1.02;;;28.60;99.90;;;;;;4886740;29;20985;-76